Terminal Aerodrome Forecast
Issued by NWS

Home | Current Version | Previous Version | Text Only | Print | Product List | Glossary On
Versions: 1 2 3 4 5 6 7 8 9 10 11 12 13 14 15 16 17 18 19 20 21 22 23 24 25 26 27 28
745
FTAK31 PANC 231730
TAFADQ
TAF
PADQ 231730Z 2318/2418 28008KT P6SM BKN100 OVC200
     FM240000 18011KT P6SM -SHRA SCT025 OVC040
     FM240700 18011KT P6SM -RA OVC025 WS020/24035KT=

USA.gov is the U.S. government's official web portal to all federal, state and local government web resources and services.